createdAt,value
2018-11-06T00:00:43.071Z,13.60
2018-11-06T00:03:17.170Z,11.57
2018-11-06T00:05:45.664Z,13.90
2018-11-06T00:08:14.147Z,12.17
2018-11-06T00:10:42.596Z,12.70
2018-11-06T00:13:11.806Z,11.22
2018-11-06T00:15:40.264Z,11.03
2018-11-06T00:18:08.720Z,10.50
2018-11-06T00:20:37.208Z,10.27
2018-11-06T00:23:05.756Z,12.20
2018-11-06T00:25:34.275Z,10.70
2018-11-06T00:28:02.760Z,12.20
2018-11-06T00:30:31.233Z,12.43
2018-11-06T00:32:59.694Z,12.00
2018-11-06T00:35:28.139Z,10.40
2018-11-06T00:37:56.673Z,11.77
2018-11-06T00:40:25.166Z,9.60
2018-11-06T00:42:53.644Z,11.00
2018-11-06T00:45:22.149Z,11.28
2018-11-06T00:47:50.593Z,9.63
2018-11-06T00:50:19.117Z,9.93
2018-11-06T00:52:47.591Z,10.80
2018-11-06T00:55:16.027Z,10.30
2018-11-06T00:57:45.220Z,10.75
2018-11-06T01:00:16.537Z,10.57
2018-11-06T01:02:45.364Z,9.67
2018-11-06T01:05:14.958Z,9.07
2018-11-06T01:07:44.586Z,9.50
2018-11-06T01:10:13.056Z,10.45
2018-11-06T01:13:44.269Z,11.07
2018-11-06T01:16:13.017Z,9.55
2018-11-06T01:18:41.548Z,11.97
2018-11-06T01:21:10.159Z,10.70
2018-11-06T01:23:38.659Z,10.57
2018-11-06T01:26:07.446Z,10.10
2018-11-06T01:28:36.028Z,10.58
2018-11-06T01:31:04.496Z,11.30
2018-11-06T01:33:32.983Z,11.18
2018-11-06T01:36:01.467Z,10.77
2018-11-06T01:38:29.964Z,10.80
2018-11-06T01:40:58.499Z,11.10
2018-11-06T01:43:26.984Z,10.75
2018-11-06T01:45:55.487Z,10.00
2018-11-06T01:48:24.639Z,11.78
2018-11-06T01:50:53.137Z,11.57
2018-11-06T01:53:21.882Z,11.70
2018-11-06T01:55:50.387Z,11.77
2018-11-06T01:58:18.885Z,11.90
2018-11-06T02:00:47.383Z,11.30
2018-11-06T02:03:15.881Z,11.00
2018-11-06T02:05:44.374Z,12.73
2018-11-06T02:08:12.925Z,12.00
2018-11-06T02:10:41.403Z,11.50
2018-11-06T02:13:09.969Z,10.97
2018-11-06T02:15:38.473Z,10.20
2018-11-06T02:18:07.006Z,9.67
2018-11-06T02:20:35.619Z,10.40
2018-11-06T02:23:04.106Z,13.30
2018-11-06T02:25:32.555Z,10.90
2018-11-06T02:28:01.031Z,11.70
2018-11-06T02:30:29.853Z,13.20
2018-11-06T02:32:58.337Z,12.13
2018-11-06T02:38:57.911Z,12.53
2018-11-06T02:41:26.396Z,12.03
2018-11-06T02:43:54.895Z,13.33
2018-11-06T02:46:23.360Z,13.00
2018-11-06T02:48:51.889Z,14.10
2018-11-06T02:51:20.594Z,13.07
2018-11-06T02:53:49.359Z,12.33
2018-11-06T02:56:17.931Z,12.30
2018-11-06T02:58:46.454Z,12.63
2018-11-06T03:01:14.925Z,13.33
2018-11-06T03:03:43.425Z,12.88
2018-11-06T03:06:12.848Z,13.10
2018-11-06T03:08:42.072Z,12.93
2018-11-06T03:11:10.992Z,11.68
2018-11-06T03:13:39.483Z,12.90
2018-11-06T03:16:08.001Z,11.33
2018-11-06T03:18:36.511Z,11.60
2018-11-06T03:21:05.024Z,12.53
2018-11-06T03:23:33.552Z,10.80
2018-11-06T03:26:01.999Z,12.33
2018-11-06T03:28:30.747Z,12.50
2018-11-06T03:30:59.403Z,11.70
2018-11-06T03:33:27.914Z,10.90
2018-11-06T03:35:56.423Z,12.07
2018-11-06T03:38:24.866Z,11.50
2018-11-06T03:40:53.356Z,12.03
2018-11-06T03:43:21.860Z,11.27
2018-11-06T03:45:50.468Z,12.15
2018-11-06T03:48:18.967Z,11.33
2018-11-06T03:50:47.460Z,11.53
2018-11-06T03:53:15.965Z,11.73
2018-11-06T03:55:44.471Z,12.70
2018-11-06T03:58:12.971Z,12.27
2018-11-06T04:00:41.463Z,11.57
2018-11-06T04:03:10.254Z,13.00
2018-11-06T04:05:38.719Z,13.25
2018-11-06T04:08:07.219Z,13.40
2018-11-06T04:10:35.698Z,11.90
2018-11-06T04:13:04.271Z,13.07
2018-11-06T04:15:32.765Z,13.70
2018-11-06T04:18:01.440Z,14.60
2018-11-06T04:20:29.953Z,14.98
2018-11-06T04:22:58.407Z,12.00
2018-11-06T04:25:26.844Z,11.53
2018-11-06T04:27:55.510Z,13.38
2018-11-06T04:30:24.069Z,13.07
2018-11-06T04:32:52.549Z,11.70
2018-11-06T04:35:21.063Z,12.25
2018-11-06T04:37:49.711Z,12.17
2018-11-06T04:40:18.156Z,13.23
2018-11-06T04:42:46.646Z,10.53
2018-11-06T04:45:15.189Z,11.13
2018-11-06T04:47:43.893Z,11.00
2018-11-06T04:50:12.374Z,11.10
2018-11-06T04:52:41.603Z,12.10
2018-11-06T04:55:11.563Z,11.07
2018-11-06T04:57:40.081Z,11.73
2018-11-06T05:00:10.780Z,11.20
2018-11-06T05:02:39.620Z,13.05
2018-11-06T05:05:08.918Z,12.13
2018-11-06T05:07:37.902Z,12.40
2018-11-06T05:10:08.271Z,13.87
2018-11-06T05:12:36.824Z,12.50
2018-11-06T05:15:06.511Z,13.47
2018-11-06T05:17:35.430Z,14.23
2018-11-06T05:20:04.499Z,14.28
2018-11-06T05:22:33.199Z,14.00
2018-11-06T05:25:01.697Z,12.63
2018-11-06T05:27:30.244Z,14.00
2018-11-06T05:29:59.273Z,12.67
2018-11-06T05:32:27.729Z,13.30
2018-11-06T05:34:56.320Z,15.28
2018-11-06T05:37:24.848Z,14.40
2018-11-06T05:40:04.445Z,14.70
2018-11-06T05:42:32.984Z,14.70
2018-11-06T05:45:01.516Z,13.33
2018-11-06T05:47:30.443Z,16.57
2018-11-06T05:49:59.091Z,17.00
2018-11-06T05:52:27.512Z,16.40
2018-11-06T05:54:55.999Z,16.43
2018-11-06T05:57:24.450Z,15.80
2018-11-06T05:59:52.916Z,15.33
2018-11-06T06:02:21.427Z,26.90
2018-11-06T06:04:49.911Z,18.47
2018-11-06T06:07:18.395Z,17.40
2018-11-06T06:09:46.899Z,19.07
2018-11-06T06:12:15.675Z,18.30
2018-11-06T06:14:44.167Z,15.27
2018-11-06T06:17:12.723Z,15.75
2018-11-06T06:19:41.116Z,16.30
2018-11-06T06:22:09.611Z,15.10
2018-11-06T06:24:38.092Z,14.57
2018-11-06T06:27:06.656Z,14.28
2018-11-06T06:29:35.157Z,13.60
2018-11-06T06:32:03.671Z,14.10
2018-11-06T06:34:32.162Z,13.20
2018-11-06T06:37:00.740Z,12.67
2018-11-06T06:39:29.234Z,11.83
2018-11-06T06:41:57.981Z,12.23
2018-11-06T06:44:26.474Z,13.13
2018-11-06T06:46:54.959Z,13.43
2018-11-06T06:49:23.475Z,15.77
2018-11-06T06:51:51.987Z,12.93
2018-11-06T06:54:21.077Z,13.40
2018-11-06T06:56:49.449Z,11.77
2018-11-06T06:59:18.084Z,12.63
2018-11-06T07:01:46.896Z,21.33
2018-11-06T07:04:18.258Z,15.63
2018-11-06T07:06:47.335Z,11.43
2018-11-06T07:09:15.822Z,11.23
2018-11-06T07:11:44.717Z,12.17
2018-11-06T07:14:13.167Z,11.23
2018-11-06T07:16:41.776Z,11.60
2018-11-06T07:19:10.257Z,11.90
2018-11-06T07:21:38.713Z,12.53
2018-11-06T07:24:07.227Z,12.43
2018-11-06T07:26:35.712Z,12.43
2018-11-06T07:29:04.200Z,12.80
2018-11-06T07:31:32.679Z,12.13
2018-11-06T07:34:01.169Z,11.33
2018-11-06T07:36:29.687Z,10.93
2018-11-06T07:38:58.142Z,10.53
2018-11-06T07:41:26.608Z,10.37
2018-11-06T07:43:55.092Z,10.40
2018-11-06T07:46:23.630Z,10.90
2018-11-06T07:48:52.095Z,9.90
2018-11-06T07:51:20.700Z,10.30
2018-11-06T07:53:49.166Z,9.00
2018-11-06T07:56:17.962Z,9.90
2018-11-06T07:58:46.376Z,9.03
2018-11-06T08:01:14.966Z,8.65
2018-11-06T08:03:43.459Z,7.97
2018-11-06T08:06:12.007Z,8.57
2018-11-06T08:08:40.451Z,7.50
2018-11-06T08:11:08.929Z,8.40
2018-11-06T08:13:37.427Z,8.60
2018-11-06T08:16:06.473Z,8.10
2018-11-06T08:18:34.985Z,8.90
2018-11-06T08:21:03.443Z,7.37
2018-11-06T08:23:31.967Z,7.60
2018-11-06T08:26:00.472Z,7.33
2018-11-06T08:28:28.907Z,6.33
2018-11-06T08:30:57.572Z,7.87
2018-11-06T08:33:25.835Z,6.83
2018-11-06T08:35:54.317Z,7.53
2018-11-06T08:38:22.789Z,6.75
2018-11-06T08:40:51.298Z,7.92
2018-11-06T08:43:19.786Z,5.67
2018-11-06T08:45:48.257Z,6.93
2018-11-06T08:48:16.817Z,8.30
2018-11-06T08:50:45.185Z,8.00
2018-11-06T08:53:13.684Z,6.47
2018-11-06T08:55:42.139Z,8.37
2018-11-06T08:58:10.649Z,5.93
2018-11-06T09:00:39.346Z,7.10
2018-11-06T09:03:08.035Z,6.37
2018-11-06T09:05:36.541Z,6.10
2018-11-06T09:08:05.412Z,5.37
2018-11-06T09:10:33.887Z,6.33
2018-11-06T09:13:02.464Z,5.60
2018-11-06T09:15:30.909Z,5.37
2018-11-06T09:17:59.356Z,6.10
2018-11-06T09:20:27.859Z,5.20
2018-11-06T09:22:56.364Z,5.40
2018-11-06T09:25:24.991Z,5.40
2018-11-06T09:27:53.471Z,4.80
2018-11-06T09:30:22.120Z,6.27
2018-11-06T09:32:50.635Z,3.70
2018-11-06T09:35:19.140Z,4.70
2018-11-06T09:37:47.833Z,4.83
2018-11-06T09:40:18.583Z,4.60
2018-11-06T09:42:47.106Z,3.83
2018-11-06T09:45:15.963Z,3.40
2018-11-06T09:47:44.489Z,4.07
2018-11-06T09:50:14.712Z,3.47
2018-11-06T09:52:43.893Z,3.63
2018-11-06T09:55:12.642Z,4.27
2018-11-06T09:57:41.152Z,2.83
2018-11-06T10:00:13.178Z,3.87
2018-11-06T10:02:41.632Z,2.37
2018-11-06T10:05:11.648Z,3.30
2018-11-06T10:07:40.281Z,3.13
2018-11-06T10:10:14.896Z,2.72
2018-11-06T10:12:43.836Z,2.90
2018-11-06T10:15:16.827Z,3.30
2018-11-06T10:17:47.047Z,3.10
2018-11-06T10:20:16.982Z,2.90
2018-11-06T10:22:45.427Z,3.20
2018-11-06T10:25:13.962Z,3.30
2018-11-06T10:27:42.682Z,2.83
2018-11-06T10:30:13.675Z,2.30
2018-11-06T10:32:42.830Z,3.20
2018-11-06T10:35:11.855Z,2.70
2018-11-06T10:38:43.168Z,2.50
2018-11-06T10:41:11.670Z,3.37
2018-11-06T10:43:40.206Z,2.33
2018-11-06T10:46:08.653Z,3.23
2018-11-06T10:48:37.090Z,2.67
2018-11-06T10:51:06.069Z,3.13
2018-11-06T10:53:34.517Z,3.00
2018-11-06T10:56:02.933Z,3.13
2018-11-06T10:58:31.900Z,3.27
2018-11-06T11:01:05.679Z,3.07
2018-11-06T11:03:39.746Z,3.97
2018-11-06T11:06:08.583Z,2.60
2018-11-06T11:08:37.069Z,2.75
2018-11-06T11:11:05.646Z,2.60
2018-11-06T11:13:34.133Z,2.77
2018-11-06T11:16:02.614Z,2.40
2018-11-06T11:18:31.144Z,2.37
2018-11-06T11:20:59.618Z,3.07
2018-11-06T11:23:28.059Z,2.70
2018-11-06T11:25:56.548Z,2.60
2018-11-06T11:28:25.036Z,3.10
2018-11-06T11:30:53.762Z,3.08
2018-11-06T11:33:22.252Z,2.10
2018-11-06T11:35:50.771Z,2.60
2018-11-06T11:38:19.286Z,4.73
2018-11-06T11:40:47.784Z,3.27
2018-11-06T11:43:16.298Z,2.40
2018-11-06T11:45:44.826Z,2.13
2018-11-06T11:48:13.343Z,2.73
2018-11-06T11:50:41.795Z,2.53
2018-11-06T11:53:10.421Z,2.90
2018-11-06T11:55:39.001Z,2.95
2018-11-06T11:58:07.479Z,2.37
2018-11-06T12:00:39.894Z,2.23
2018-11-06T12:03:09.104Z,2.83
2018-11-06T12:05:37.613Z,3.13
2018-11-06T12:08:06.125Z,2.53
2018-11-06T12:10:34.548Z,2.23
2018-11-06T12:13:03.004Z,2.70
2018-11-06T12:15:31.476Z,2.23
2018-11-06T12:17:59.901Z,2.60
2018-11-06T12:20:28.443Z,2.70
2018-11-06T12:22:56.927Z,2.83
2018-11-06T12:25:25.829Z,2.07
2018-11-06T12:27:54.047Z,3.52
2018-11-06T12:30:22.559Z,3.20
2018-11-06T12:32:51.332Z,2.40
2018-11-06T12:35:19.787Z,2.00
2018-11-06T12:37:48.212Z,2.53
2018-11-06T12:40:16.875Z,2.90
2018-11-06T12:42:45.417Z,2.50
2018-11-06T12:45:15.567Z,2.80
2018-11-06T12:47:44.984Z,2.30
2018-11-06T12:50:13.463Z,3.43
2018-11-06T12:52:42.501Z,2.22
2018-11-06T12:55:13.100Z,2.80
2018-11-06T12:57:41.578Z,2.17
2018-11-06T13:00:13.202Z,1.90
2018-11-06T13:02:41.743Z,2.40
2018-11-06T13:05:10.903Z,2.37
2018-11-06T13:07:40.838Z,2.73
2018-11-06T13:10:10.088Z,2.33
2018-11-06T13:12:39.438Z,2.40
2018-11-06T13:15:08.565Z,1.90
2018-11-06T13:17:37.747Z,2.92
2018-11-06T13:20:08.107Z,2.20
2018-11-06T13:22:36.618Z,2.97
2018-11-06T13:25:05.702Z,2.17
2018-11-06T13:27:34.159Z,2.80
2018-11-06T13:30:02.736Z,2.00
2018-11-06T13:32:31.188Z,2.03
2018-11-06T13:34:59.673Z,2.40
2018-11-06T13:37:28.299Z,2.40
2018-11-06T13:39:56.767Z,2.73
2018-11-06T13:42:25.252Z,2.53
2018-11-06T13:44:54.007Z,2.50
2018-11-06T13:47:22.351Z,1.87
2018-11-06T13:49:50.930Z,2.03
2018-11-06T13:52:19.648Z,2.40
2018-11-06T13:54:48.082Z,2.37
2018-11-06T13:57:16.527Z,2.40
2018-11-06T13:59:45.140Z,2.20
2018-11-06T14:02:13.699Z,2.77
2018-11-06T14:04:42.148Z,1.90
2018-11-06T14:07:10.691Z,1.47
2018-11-06T14:09:39.134Z,1.90
2018-11-06T14:12:07.920Z,2.27
2018-11-06T14:14:36.403Z,1.83
2018-11-06T14:17:05.152Z,1.70
2018-11-06T14:19:33.600Z,2.00
2018-11-06T14:22:02.215Z,2.07
2018-11-06T14:24:30.703Z,2.00
2018-11-06T14:26:59.186Z,1.20
2018-11-06T14:29:27.690Z,1.40
2018-11-06T14:31:56.483Z,1.40
2018-11-06T14:34:25.017Z,1.47
2018-11-06T14:36:53.500Z,1.57
2018-11-06T14:39:22.161Z,2.27
2018-11-06T14:41:50.656Z,1.07
2018-11-06T14:44:19.163Z,1.65
2018-11-06T14:46:47.648Z,1.50
2018-11-06T14:49:16.158Z,1.57
2018-11-06T14:51:44.883Z,1.53
2018-11-06T14:54:14.602Z,1.17
2018-11-06T14:56:43.377Z,1.00
2018-11-06T14:59:11.838Z,1.50
2018-11-06T15:01:40.296Z,1.37
2018-11-06T15:04:08.776Z,1.30
2018-11-06T15:06:37.597Z,1.50
2018-11-06T15:09:08.425Z,1.47
2018-11-06T15:11:37.683Z,1.30
2018-11-06T15:14:06.371Z,1.30
2018-11-06T15:19:34.660Z,1.17
2018-11-06T15:22:04.564Z,1.15
2018-11-06T15:24:33.392Z,1.70
2018-11-06T15:27:02.012Z,1.47
2018-11-06T15:29:30.888Z,1.22
2018-11-06T15:31:59.321Z,2.10
2018-11-06T15:34:27.960Z,1.87
2018-11-06T15:36:56.579Z,1.97
2018-11-06T15:39:25.347Z,1.77
2018-11-06T15:41:53.903Z,1.90
2018-11-06T15:44:22.287Z,2.52
2018-11-06T15:46:50.956Z,1.50
2018-11-06T15:49:19.799Z,2.00
2018-11-06T15:51:48.487Z,1.60
2018-11-06T15:54:16.985Z,1.63
2018-11-06T15:56:45.828Z,2.00
2018-11-06T15:59:14.988Z,2.00
2018-11-06T16:01:43.489Z,1.40
2018-11-06T16:04:12.205Z,1.80
2018-11-06T16:06:40.674Z,1.53
2018-11-06T16:09:09.665Z,1.45
2018-11-06T16:11:38.149Z,1.60
2018-11-06T16:14:06.704Z,1.60
2018-11-06T16:16:35.236Z,1.97
2018-11-06T16:19:03.982Z,2.07
2018-11-06T16:21:32.580Z,1.40
2018-11-06T16:24:01.176Z,1.50
2018-11-06T16:26:29.691Z,1.10
2018-11-06T16:28:58.505Z,2.12
2018-11-06T16:31:27.002Z,1.70
2018-11-06T16:33:55.600Z,2.87
2018-11-06T16:36:24.747Z,2.15
2018-11-06T16:38:53.872Z,1.57
2018-11-06T16:41:22.417Z,1.77
2018-11-06T16:43:50.973Z,1.50
2018-11-06T16:46:19.427Z,1.50
2018-11-06T16:48:48.453Z,1.40
2018-11-06T16:51:17.143Z,1.30
2018-11-06T16:53:45.593Z,1.52
2018-11-06T16:56:14.063Z,1.30
2018-11-06T16:58:42.515Z,1.80
2018-11-06T17:01:11.149Z,1.85
2018-11-06T17:03:39.524Z,1.73
2018-11-06T17:06:12.211Z,3.70
2018-11-06T17:08:40.998Z,2.27
2018-11-06T17:11:10.213Z,3.30
2018-11-06T17:13:39.084Z,3.20
2018-11-06T17:16:08.521Z,3.00
2018-11-06T17:18:37.141Z,2.30
2018-11-06T17:21:06.334Z,2.40
2018-11-06T17:23:35.157Z,2.33
2018-11-06T17:26:03.715Z,2.40
2018-11-06T17:28:32.239Z,2.75
2018-11-06T17:31:00.721Z,2.43
2018-11-06T17:33:29.280Z,2.80
2018-11-06T17:35:57.870Z,3.57
2018-11-06T17:38:26.560Z,2.62
2018-11-06T17:40:55.093Z,2.57
2018-11-06T17:43:23.576Z,3.33
2018-11-06T17:45:52.339Z,2.17
2018-11-06T17:48:21.331Z,2.92
2018-11-06T17:50:50.235Z,2.50
2018-11-06T17:53:18.720Z,2.83
2018-11-06T17:55:47.374Z,2.55
2018-11-06T17:58:15.892Z,2.77
2018-11-06T18:00:44.659Z,3.07
2018-11-06T18:03:13.133Z,3.60
2018-11-06T18:05:41.831Z,3.10
2018-11-06T18:08:10.366Z,2.90
2018-11-06T18:10:42.772Z,2.65
2018-11-06T18:13:11.498Z,2.87
2018-11-06T18:15:40.064Z,2.70
2018-11-06T18:18:08.678Z,2.10
2018-11-06T18:20:37.313Z,2.50
2018-11-06T18:23:05.915Z,2.43
2018-11-06T18:25:34.482Z,2.73
2018-11-06T18:28:02.915Z,2.97
2018-11-06T18:30:31.392Z,3.05
2018-11-06T18:33:00.482Z,3.53
2018-11-06T18:35:29.013Z,3.53
2018-11-06T18:37:57.532Z,3.03
2018-11-06T18:40:26.113Z,4.43
2018-11-06T18:42:54.751Z,4.63
2018-11-06T18:45:23.290Z,4.43
2018-11-06T18:47:51.878Z,4.30
2018-11-06T18:50:20.817Z,4.40
2018-11-06T18:52:50.577Z,3.90
2018-11-06T18:57:54.312Z,4.47
2018-11-06T19:00:23.787Z,4.60
2018-11-06T19:02:53.469Z,4.80
2018-11-06T19:05:23.368Z,4.40
2018-11-06T19:07:52.068Z,4.70
2018-11-06T19:10:20.602Z,34.83
2018-11-06T19:12:49.089Z,5.90
2018-11-06T19:15:19.324Z,4.00
2018-11-06T19:17:48.558Z,5.40
2018-11-06T19:20:17.624Z,8.17
2018-11-06T19:22:46.652Z,12.93
2018-11-06T19:25:15.616Z,11.33
2018-11-06T19:27:44.947Z,9.78
2018-11-06T19:30:15.632Z,9.53
2018-11-06T19:32:44.089Z,6.10
2018-11-06T19:35:13.224Z,5.10
2018-11-06T19:37:42.653Z,8.00
2018-11-06T19:40:13.093Z,6.67
2018-11-06T19:42:42.462Z,6.55
2018-11-06T19:45:11.906Z,6.03
2018-11-06T19:47:41.219Z,5.17
2018-11-06T19:50:12.256Z,6.53
2018-11-06T19:52:41.611Z,6.55
2018-11-06T19:55:11.856Z,6.80
2018-11-06T19:57:40.739Z,7.10
2018-11-06T20:00:19.028Z,7.27
2018-11-06T20:02:49.904Z,8.20
2018-11-06T20:05:19.449Z,8.67
2018-11-06T20:07:49.166Z,6.60
2018-11-06T20:10:20.041Z,7.03
2018-11-06T20:12:49.819Z,5.60
2018-11-06T20:15:18.785Z,5.50
2018-11-06T20:17:47.720Z,4.42
2018-11-06T20:20:22.837Z,5.50
2018-11-06T20:22:51.828Z,6.80
2018-11-06T20:25:20.328Z,5.80
2018-11-06T20:27:48.894Z,6.12
2018-11-06T20:30:19.433Z,6.43
2018-11-06T20:32:48.211Z,6.67
2018-11-06T20:35:17.217Z,7.20
2018-11-06T20:37:45.808Z,6.37
2018-11-06T20:40:16.542Z,6.00
2018-11-06T20:42:45.663Z,8.50
2018-11-06T20:45:15.663Z,8.53
2018-11-06T20:47:45.021Z,8.47
2018-11-06T20:50:18.980Z,7.43
2018-11-06T20:52:47.965Z,7.27
2018-11-06T20:55:17.584Z,6.40
2018-11-06T20:57:46.138Z,7.90
2018-11-06T21:00:23.798Z,6.30
2018-11-06T21:02:53.742Z,6.20
2018-11-06T21:05:22.548Z,5.90
2018-11-06T21:07:51.675Z,6.97
2018-11-06T21:10:22.469Z,6.30
2018-11-06T21:12:51.145Z,6.65
2018-11-06T21:15:19.967Z,5.90
2018-11-06T21:17:48.778Z,5.90
2018-11-06T21:20:17.829Z,4.90
2018-11-06T21:22:46.263Z,5.90
2018-11-06T21:25:15.408Z,5.40
2018-11-06T21:27:44.355Z,5.47
2018-11-06T21:30:15.215Z,6.63
2018-11-06T21:32:45.464Z,5.73
2018-11-06T21:35:13.979Z,6.40
2018-11-06T21:37:42.447Z,5.93
2018-11-06T21:40:15.787Z,7.10
2018-11-06T21:42:44.782Z,5.53
2018-11-06T21:45:14.360Z,5.60
2018-11-06T21:47:43.663Z,6.13
2018-11-06T21:50:13.004Z,5.57
2018-11-06T21:52:41.589Z,7.53
2018-11-06T21:55:11.507Z,6.30
2018-11-06T21:57:40.060Z,7.30
2018-11-06T22:00:12.073Z,7.30
2018-11-06T22:02:40.637Z,6.43
2018-11-06T22:05:10.955Z,7.20
2018-11-06T22:07:39.883Z,6.17
2018-11-06T22:10:10.206Z,7.08
2018-11-06T22:12:38.846Z,7.37
2018-11-06T22:15:09.013Z,7.42
2018-11-06T22:17:37.788Z,5.90
2018-11-06T22:20:07.716Z,5.87
2018-11-06T22:22:36.172Z,5.83
2018-11-06T22:25:04.988Z,5.70
2018-11-06T22:27:33.562Z,4.60
2018-11-06T22:30:02.023Z,4.80
2018-11-06T22:32:30.512Z,5.10
2018-11-06T22:34:58.975Z,4.77
2018-11-06T22:37:27.441Z,15.37
2018-11-06T22:39:56.895Z,7.00
2018-11-06T22:42:25.392Z,4.87
2018-11-06T22:44:53.855Z,5.30
2018-11-06T22:47:22.343Z,5.17
2018-11-06T22:49:50.836Z,4.45
2018-11-06T22:52:19.311Z,4.50
2018-11-06T22:54:47.786Z,5.00
2018-11-06T23:00:53.476Z,4.37
2018-11-06T23:03:21.995Z,4.10
2018-11-06T23:05:50.536Z,4.27
2018-11-06T23:08:24.308Z,4.63
2018-11-06T23:10:52.912Z,4.77
2018-11-06T23:13:21.419Z,5.37
2018-11-06T23:15:49.874Z,5.60
2018-11-06T23:18:18.624Z,5.08
2018-11-06T23:20:47.133Z,5.40
2018-11-06T23:23:15.656Z,5.50
2018-11-06T23:25:44.112Z,5.10
2018-11-06T23:28:12.560Z,5.12
2018-11-06T23:30:41.047Z,4.33
2018-11-06T23:33:09.524Z,5.73
2018-11-06T23:35:38.019Z,6.03
2018-11-06T23:38:06.682Z,5.20
2018-11-06T23:40:35.297Z,6.33
2018-11-06T23:43:04.539Z,7.10
2018-11-06T23:45:32.987Z,6.20
2018-11-06T23:48:01.476Z,6.43
2018-11-06T23:50:29.907Z,6.60
2018-11-06T23:52:58.407Z,6.20
2018-11-06T23:55:26.895Z,7.25
2018-11-06T23:57:55.356Z,6.50
